This is the latest recevied weather packets stored in our database for station/object KE5KUL-13. If no packets are shown the sender has not sent any weather packets the latest 10 day(s).
| Time | Temp. | Humidity | Pressure | Rain* | Wind** | Luminosity | Snow |
|---|---|---|---|---|---|---|---|
| 1777986618 | 11.67° C | 53% | 1008.4 hPa | 0 mm | - | - | - |
| 1777986018 | 11.67° C | 53% | 1008.4 hPa | 0 mm | - | - | - |
| 1777985418 | 11.67° C | 53% | 1008.3 hPa | 0 mm | - | - | - |
| 1777984818 | 11.67° C | 53% | 1008.1 hPa | 0 mm | - | - | - |
| 1777984218 | 11.67° C | 54% | 1008.4 hPa | 0 mm | - | - | - |
| 1777983618 | 12.22° C | 54% | 1008.2 hPa | 0 mm | - | - | - |
| 1777983018 | 12.22° C | 54% | 1007.9 hPa | 0 mm | - | - | - |
| 1777982417 | 12.22° C | 54% | 1008 hPa | 0 mm | - | - | - |
| 1777981817 | 12.22° C | 54% | 1007.9 hPa | 0 mm | - | - | - |
| 1777981218 | 12.22° C | 54% | 1007.5 hPa | 0 mm | - | - | - |
| 1777980618 | 12.78° C | 55% | 1007.9 hPa | 0 mm | - | - | - |
| 1777980018 | 12.78° C | 55% | 1007.9 hPa | 0 mm | - | - | - |
| 1777979417 | 13.33° C | 55% | 1007.9 hPa | 0 mm | - | - | - |
| 1777978817 | 13.33° C | 55% | 1008.1 hPa | 0 mm | - | - | - |
| 1777978218 | 13.89° C | 55% | 1008.2 hPa | 0 mm | - | - | - |
| 1777977618 | 14.44° C | 55% | 1008.4 hPa | 0 mm | - | - | - |
| 1777977017 | 15° C | 54% | 1008.1 hPa | 0 mm | - | - | - |
| 1777976417 | 15.56° C | 52% | 1008.5 hPa | 0 mm | - | - | - |
| 1777975836 | 16.11° C | 48% | 1008.5 hPa | 0 mm | - | - | - |
| 1777975218 | 17.22° C | 44% | 1008.5 hPa | 0 mm | - | - | - |
| 1777974617 | 18.33° C | 37% | 1008.3 hPa | 0 mm | - | - | - |
| 1777974017 | 18.89° C | 29% | 1008 hPa | 0 mm | - | - | - |
| 1777973417 | 18.89° C | 26% | 1007.6 hPa | 0 mm | - | - | - |
| 1777972817 | 18.89° C | 27% | 1007.4 hPa | 0 mm | - | - | - |
| 1777972217 | 18.89° C | 29% | 1007.4 hPa | 0 mm | - | - | - |
* Rain latest hour (hover to see other rain measurements)
** Current wind speed in m/s (hover to see current wind gust speed)